Aviation Digital Data Service (ADDS)

Output produced by METARs form (0348 UTC 21 September 2018)
found at http://www.aviationweather.gov/metar/data/
 
KSEG 210253Z AUTO 18004KT 9SM OVC021 21/18 A3019 RMK AO2 SLP222 T02110183 51012
KSEG 210218Z AUTO 18004KT 9SM BKN023 BKN037 21/18 A3019 RMK AO2 T02060183
KSEG 210153Z AUTO 21003KT 9SM FEW037 20/18 A3018 RMK AO2 SLP219 T02000183
KSEG 210053Z AUTO 16003KT 9SM CLR 21/18 A3018 RMK AO2 SLP219 T02060183
KSEG 202353Z AUTO 16004KT 9SM CLR 21/18 A3016 RMK AO2 SLP211 T02110183 10256 20206 56003
KSEG 202253Z AUTO 14004KT 10SM CLR 21/19 A3016 RMK AO2 SLP211 T02110189
KSEG 202153Z AUTO 00000KT 10SM CLR 24/19 A3016 RMK AO2 SLP210 T02390189
KSEG 202053Z AUTO 18004KT 10SM OVC055 24/18 A3017 RMK AO2 SLP212 T02440183 55004
KSEG 201953Z AUTO 16005KT 10SM BKN039 OVC045 24/18 A3016 RMK AO2 SLP209 T02440183
KSEG 201853Z AUTO 15005KT 10SM BKN035 24/18 A3016 RMK AO2 SLP211 T02440183
KSEG 201753Z AUTO 15005KT 10SM FEW027 25/18 A3018 RMK AO2 SLP217 T02500178 10250 20144 58017
KSEG 201653Z AUTO 14003KT 10SM SCT044 23/17 A3020 RMK AO2 SLP224 T02330172
KSEG 201553Z AUTO 00000KT 10SM CLR 21/16 A3021 RMK AO2 SLP228 T02110156
KSEG 201453Z AUTO 07005KT 10SM SCT020 OVC041 19/16 A3023 RMK AO2 SLP235 T01890156 50010
KSEG 201436Z AUTO 08004KT 10SM SCT020 OVC041 19/16 A3023 RMK AO2 T01890156
KSEG 201353Z AUTO 00000KT 10SM BKN019 OVC041 18/15 A3023 RMK AO2 SLP236 T01780150
KSEG 201314Z AUTO VRB03KT 10SM BKN020 OVC031 17/15 A3022 RMK AO2 T01670150
KSEG 201253Z AUTO 00000KT 10SM OVC030 17/14 A3021 RMK AO2 SLP230 T01670144
KSEG 201246Z AUTO 00000KT 10SM FEW023 OVC030 16/14 A3021 RMK AO2 T01610144
KSEG 201209Z AUTO 00000KT 10SM BKN023 BKN040 15/14 A3020 RMK AO2 T01500139
KSEG 201153Z AUTO 00000KT 9SM SCT025 SCT040 14/14 A3020 RMK AO2 SLP224 T01440139 10156 20128 53024
KSEG 201053Z AUTO 00000KT 8SM CLR 13/12 A3017 RMK AO2 SLP214 T01280122
KSEG 200953Z AUTO 31003KT 10SM CLR 14/13 A3015 RMK AO2 SLP206 T01390133
KSEG 200853Z AUTO 35003KT 10SM CLR 14/13 A3013 RMK AO2 SLP199 T01390133 53002
KSEG 200753Z AUTO 34003KT 10SM CLR 14/13 A3012 RMK AO2 SLP196 T01440133
KSEG 200653Z AUTO 33003KT 10SM CLR 15/14 A3011 RMK AO2 SLP195 T01500139
KSEG 200553Z AUTO 00000KT 10SM CLR 15/14 A3012 RMK AO2 SLP197 T01500144 10189 20144 53013
KSEG 200453Z AUTO 34003KT 10SM CLR 16/14 A3011 RMK AO2 SLP193 T01560144 402670150
KSEG 200353Z AUTO 01004KT 10SM CLR 16/15 A3010 RMK AO2 SLP188 T01610150
KSEG 200253Z AUTO 34005KT 10SM CLR 16/16 A3008 RMK AO2 SLP184 T01610156 51020
KSEG 200153Z AUTO 00000KT 10SM CLR 18/16 A3007 RMK AO2 SLP179 T01780161
KSEG 200053Z AUTO 00000KT 10SM CLR 18/17 A3004 RMK AO2 SLP172 T01780167
KSEG 192353Z AUTO 33003KT 10SM CLR 19/17 A3002 RMK AO2 SLP164 T01890172 10267 20183 53016
KSEG 192253Z AUTO 01004KT 10SM CLR 22/17 A3000 RMK AO2 SLP157 T02170167
KSEG 192153Z AUTO 01005KT 10SM CLR 24/17 A2998 RMK AO2 SLP150 T02440167
KSEG 192053Z AUTO 05008KT 10SM CLR 26/17 A2997 RMK AO2 SLP147 T02560172 58002
KSEG 191953Z AUTO 03005KT 10SM CLR 26/18 A2998 RMK AO2 SLP150 T02560178
KSEG 191853Z AUTO VRB06KT 10SM SCT035 26/18 A2998 RMK AO2 SLP150 T02560178
KSEG 191753Z AUTO VRB05KT 10SM FEW035 26/19 A2998 RMK AO2 SLP149 T02560189 10261 20178 58003
KSEG 191653Z AUTO 36007KT 10SM OVC040 24/17 A2999 RMK AO2 SLP152 T02440172
KSEG 191553Z AUTO 01009KT 10SM FEW026 BKN044 25/19 A2999 RMK AO2 SLP152 T02500194
KSEG 191549Z AUTO 02007KT 10SM FEW026 BKN042 25/19 A2999 RMK AO2